Colwell, Iowa
Current Conditions -  °F | °C
As of 12:35 PM on Sunday 21 Dec 2014 (Local Time) from KCCY Reporting Station
Haze Haze  
Wind Chill: 27°   Ceiling: 600
Heat Index: 37°   Visibility: 2mi
Dew Point: 37°   Wind: 22mph
Humidity: 100%   Direction: 180°S
Pressure: 29.86"   Gusts: 35mph
Location:  43.16°N, 92.59°W
Report Text: KCCY 211835Z AUTO 18019G30KT 2SM BR OVC006 03/03 A2986 RMK AO2
Loading
Personal Weather Stations






























Interactive Weather Map New forecast layout! Learn more

10-Day Weather Forecast

Advertisements
Track Severe Weather on mobile